Time;durP1;ratioP1;P1;durP2;ratioP2;P2;SDS_P1;SDS_P2;PMS_P1;PMS_P2;Temp;Humidity;BMP_temperature;BMP_pressure;BME280_temperature;BME280_humidity;BME280_pressure;Samples;Min_cycle;Max_cycle;Signal;HPM_P1;HPM_P2
2021/12/21 00:00:46;;;;;;;2.08;1.30;;;;;;;0.63;100.00;102049.88;4992679;28;20077;-67
2021/12/21 00:03:11;;;;;;;1.58;1.38;;;;;;;0.62;99.86;102047.50;4995096;28;20481;-67
2021/12/21 00:05:38;;;;;;;5.20;1.75;;;;;;;0.60;100.00;102044.31;5004798;28;20121;-67
2021/12/21 00:08:08;;;;;;;1.45;1.15;;;;;;;0.61;99.85;102046.69;5000086;28;20038;-67
2021/12/21 00:10:33;;;;;;;3.95;2.25;;;;;;;0.59;100.00;102037.41;4999901;28;20038;-67
2021/12/21 00:13:08;;;;;;;2.75;1.80;;;;;;;0.60;99.70;102046.97;5006549;28;20565;-67
2021/12/21 00:15:59;;;;;;;3.50;1.67;;;;;;;0.57;99.67;102050.09;5024082;28;20389;-67
2021/12/21 00:21:43;;;;;;;2.92;1.27;;;;;;;0.58;99.75;102049.06;4998173;28;20035;-67
2021/12/21 00:23:50;;;;;;;1.27;1.05;;;;;;;0.55;99.68;102049.53;5003352;28;20117;-66
2021/12/21 00:26:21;;;;;;;3.78;2.00;;;;;;;0.49;99.52;102043.41;5012705;28;20046;-67
2021/12/21 00:28:56;;;;;;;2.53;1.52;;;;;;;0.48;99.87;102036.53;4996780;28;20100;-67
2021/12/21 00:31:23;;;;;;;2.75;1.27;;;;;;;0.48;99.41;102036.53;5005992;28;20030;-67
2021/12/21 00:33:49;;;;;;;2.72;1.35;;;;;;;0.49;99.90;102037.31;5023598;28;20434;-67
2021/12/21 00:36:17;;;;;;;1.13;0.95;;;;;;;0.49;99.63;102037.31;5017495;28;20100;-67
2021/12/21 00:38:44;;;;;;;5.15;1.33;;;;;;;0.45;99.97;102036.22;5012208;28;20034;-67
2021/12/21 00:41:10;;;;;;;4.55;1.83;;;;;;;0.45;99.46;102042.31;5010982;28;20515;-66
2021/12/21 00:43:35;;;;;;;4.43;1.42;;;;;;;0.47;99.42;102034.13;5029471;28;20057;-66
2021/12/21 00:46:01;;;;;;;1.20;1.08;;;;;;;0.44;99.69;102042.56;5009607;28;20049;-69
2021/12/21 00:48:29;;;;;;;2.80;1.05;;;;;;;0.42;99.70;102047.34;5004812;28;20096;-67
2021/12/21 00:51:01;;;;;;;1.60;0.80;;;;;;;0.41;99.41;102040.41;5002272;28;20042;-67
2021/12/21 00:53:27;;;;;;;2.60;1.55;;;;;;;0.38;99.42;102047.03;4992529;28;20034;-66
2021/12/21 00:55:53;;;;;;;4.80;1.27;;;;;;;0.34;99.52;102038.00;4992286;28;20038;-66
2021/12/21 00:58:19;;;;;;;2.67;1.25;;;;;;;0.33;99.28;102043.56;4998199;28;20454;-67
2021/12/21 01:00:44;;;;;;;3.35;1.65;;;;;;;0.32;99.56;102040.09;5018959;28;20029;-66
2021/12/21 01:03:12;;;;;;;2.33;1.77;;;;;;;0.30;99.53;102047.50;5012036;28;20038;-67
2021/12/21 01:06:26;;;;;;;1.48;1.20;;;;;;;0.30;99.48;102038.75;5005243;28;20177;-66
2021/12/21 01:08:31;;;;;;;5.18;1.60;;;;;;;0.29;99.56;102037.16;4984336;28;20042;-67
2021/12/21 01:11:21;;;;;;;2.40;1.63;;;;;;;0.26;99.17;102035.00;5001553;28;20033;-67
2021/12/21 01:14:01;;;;;;;2.20;1.75;;;;;;;0.26;99.14;102035.00;5005089;28;20490;-66
2021/12/21 01:16:59;;;;;;;2.53;1.50;;;;;;;0.26;99.25;102033.16;5013230;28;20029;-67
2021/12/21 01:19:24;;;;;;;1.42;1.02;;;;;;;0.26;99.81;102035.81;4992144;28;20113;-67
2021/12/21 01:22:03;;;;;;;3.90;1.42;;;;;;;0.26;99.24;102032.34;5005861;28;20034;-67
2021/12/21 01:32:18;;;;;;;2.70;1.27;;;;;;;0.25;99.06;102025.47;5010595;28;20472;-67
2021/12/21 01:37:42;;;;;;;2.00;1.25;;;;;;;0.16;99.31;102016.38;4996006;23;20871;-69
2021/12/21 01:40:20;;;;;;;7.35;1.85;;;;;;;0.15;99.78;102014.78;4964944;28;20042;-67
2021/12/21 01:50:39;;;;;;;3.40;1.73;;;;;;;0.08;99.64;102008.91;4968600;28;20391;-69
2021/12/21 01:53:04;;;;;;;1.92;1.40;;;;;;;0.08;99.43;102009.69;4970410;28;20041;-68
2021/12/21 01:55:30;;;;;;;2.03;1.40;;;;;;;0.08;99.61;102004.38;4970466;28;20037;-67
2021/12/21 01:57:55;;;;;;;2.45;1.13;;;;;;;0.09;99.25;102016.59;4971044;28;20439;-71
2021/12/21 02:00:21;;;;;;;1.60;0.95;;;;;;;0.10;99.81;102010.22;4968504;28;20042;-69
2021/12/21 02:02:47;;;;;;;6.53;1.48;;;;;;;0.09;99.42;102016.59;4970040;28;20088;-69
2021/12/21 02:05:12;;;;;;;1.83;1.00;;;;;;;0.09;99.45;102006.00;4965787;28;20418;-69
2021/12/21 02:07:39;;;;;;;3.25;2.15;;;;;;;0.08;99.78;102008.91;4970618;28;20112;-68
2021/12/21 02:10:05;;;;;;;1.48;1.10;;;;;;;0.09;100.00;102010.50;4965998;28;20064;-70
2021/12/21 02:12:31;;;;;;;2.90;1.60;;;;;;;0.06;99.94;102001.19;4969633;28;20053;-68
2021/12/21 02:14:59;;;;;;;3.15;1.33;;;;;;;0.08;100.00;102003.63;4960104;28;20252;-69
2021/12/21 02:20:41;;;;;;;2.33;1.60;;;;;;;0.03;100.00;101991.13;4965909;28;20118;-69
2021/12/21 02:25:59;;;;;;;5.93;1.77;;;;;;;0.04;100.00;101997.22;4971527;28;20043;-69
2021/12/21 02:30:54;;;;;;;1.95;1.50;;;;;;;0.08;100.00;101987.72;4962406;28;20166;-68
2021/12/21 02:33:22;;;;;;;5.22;2.53;;;;;;;0.09;100.00;101994.59;4968194;28;20038;-68
2021/12/21 02:35:47;;;;;;;3.25;1.27;;;;;;;0.08;100.00;101985.09;4966175;28;20376;-69
2021/12/21 02:38:13;;;;;;;1.70;1.42;;;;;;;0.06;100.00;101985.31;4971560;28;20042;-68
2021/12/21 02:40:39;;;;;;;1.88;1.20;;;;;;;0.06;100.00;101979.25;4965785;28;20105;-69
2021/12/21 02:43:05;;;;;;;2.20;1.58;;;;;;;0.07;100.00;101983.47;4969387;28;20066;-70
2021/12/21 02:45:31;;;;;;;1.90;1.63;;;;;;;0.07;100.00;101981.63;4971557;28;20046;-70
2021/12/21 02:47:57;;;;;;;2.42;1.27;;;;;;;0.06;100.00;101981.88;4967509;28;20042;-70
2021/12/21 02:50:23;;;;;;;2.30;1.27;;;;;;;0.05;100.00;101985.56;4971474;28;20038;-70
2021/12/21 02:52:50;;;;;;;3.58;1.65;;;;;;;0.05;100.00;101977.63;4971911;28;20394;-70
2021/12/21 02:55:16;;;;;;;2.28;1.17;;;;;;;0.03;100.00;101979.72;4973394;28;20035;-70
2021/12/21 02:57:41;;;;;;;5.90;2.15;;;;;;;0.02;100.00;101976.28;4974805;28;20042;-70
2021/12/21 03:00:08;;;;;;;2.45;1.65;;;;;;;-0.02;100.00;101975.97;4975010;28;20046;-70
2021/12/21 03:02:34;;;;;;;2.75;1.38;;;;;;;-0.02;100.00;101983.16;4975085;28;20443;-69
2021/12/21 03:05:01;;;;;;;1.77;1.38;;;;;;;-0.05;100.00;101984.44;4974222;28;20034;-69
2021/12/21 03:10:14;;;;;;;2.05;1.60;;;;;;;-0.08;100.00;101978.84;4973764;28;20066;-70
2021/12/21 03:15:16;;;;;;;1.85;1.35;;;;;;;-0.09;100.00;101978.03;4964396;28;20042;-70
2021/12/21 03:17:41;;;;;;;9.00;2.38;;;;;;;-0.09;100.00;101985.97;4974661;28;20034;-70
2021/12/21 03:20:07;;;;;;;1.55;1.38;;;;;;;-0.10;100.00;101984.38;4974909;28;20034;-69
2021/12/21 03:22:35;;;;;;;5.00;2.10;;;;;;;-0.11;100.00;101974.03;4974362;28;20086;-70
2021/12/21 03:25:00;;;;;;;2.58;1.77;;;;;;;-0.11;100.00;101969.56;4973792;28;20548;-70
2021/12/21 03:27:26;;;;;;;2.10;1.27;;;;;;;-0.11;100.00;101972.19;4975081;28;20042;-70
2021/12/21 03:29:52;;;;;;;1.45;1.10;;;;;;;-0.11;100.00;101969.56;4971304;28;20062;-70
2021/12/21 03:32:17;;;;;;;1.55;1.25;;;;;;;-0.09;100.00;101958.72;4965612;28;20027;-70
2021/12/21 03:34:42;;;;;;;5.03;1.83;;;;;;;-0.09;100.00;101967.47;4971205;28;20479;-70
2021/12/21 03:37:12;;;;;;;2.25;1.35;;;;;;;-0.09;100.00;101956.88;4970538;28;20038;-70
2021/12/21 03:39:42;;;;;;;2.72;1.70;;;;;;;-0.09;100.00;101962.16;4974302;28;20057;-70
2021/12/21 03:42:08;;;;;;;2.95;1.45;;;;;;;-0.11;99.91;101964.25;4973567;28;20066;-69
2021/12/21 03:44:37;;;;;;;4.43;1.88;;;;;;;-0.17;100.00;101967.09;4959857;28;20034;-69
2021/12/21 03:47:03;;;;;;;1.00;0.90;;;;;;;-0.18;100.00;101960.22;4969717;28;20744;-69
2021/12/21 03:52:07;;;;;;;2.92;1.40;;;;;;;-0.19;100.00;101955.97;4973027;28;20034;-69
2021/12/21 03:54:32;;;;;;;4.07;1.45;;;;;;;-0.24;100.00;101962.03;4970282;28;20038;-69
2021/12/21 03:56:58;;;;;;;2.50;1.20;;;;;;;-0.24;100.00;101951.44;4972472;28;20019;-68
2021/12/21 03:59:23;;;;;;;2.20;1.42;;;;;;;-0.24;99.44;101955.94;4954041;28;20082;-69
2021/12/21 04:01:50;;;;;;;2.05;0.88;;;;;;;-0.31;99.31;101964.06;4962081;28;20047;-69
2021/12/21 04:04:19;;;;;;;2.55;1.63;;;;;;;-0.32;99.51;101965.13;4970906;28;20042;-68
2021/12/21 04:06:46;;;;;;;1.30;1.20;;;;;;;-0.34;99.83;101961.94;4954768;28;20035;-69
2021/12/21 04:09:12;;;;;;;5.07;2.03;;;;;;;-0.36;99.33;101966.66;4957422;28;20109;-69
2021/12/21 04:11:38;;;;;;;1.65;1.17;;;;;;;-0.40;99.30;101962.91;4972727;28;20035;-68
2021/12/21 04:14:05;;;;;;;3.00;1.55;;;;;;;-0.39;99.78;101967.19;4962955;28;20202;-69
2021/12/21 04:16:31;;;;;;;4.18;1.95;;;;;;;-0.37;99.37;101966.91;4966493;28;20034;-69
2021/12/21 04:18:57;;;;;;;0.75;0.75;;;;;;;-0.37;99.68;101964.28;4961363;28;20034;-67
2021/12/21 04:21:23;;;;;;;2.92;1.58;;;;;;;-0.38;99.51;101963.47;4967870;28;20047;-69
2021/12/21 04:23:49;;;;;;;3.58;1.55;;;;;;;-0.38;99.18;101966.13;4970567;28;20077;-68
2021/12/21 04:26:16;;;;;;;3.67;1.92;;;;;;;-0.37;99.51;101965.06;4969572;28;20062;-68
2021/12/21 04:28:42;;;;;;;2.45;1.52;;;;;;;-0.33;99.22;101957.44;4966682;28;20035;-68
2021/12/21 04:31:10;;;;;;;0.80;0.80;;;;;;;-0.37;98.97;101965.06;4954795;28;20582;-69
2021/12/21 04:33:38;;;;;;;3.00;1.48;;;;;;;-0.37;99.08;101964.28;4953535;28;20082;-69
2021/12/21 04:36:04;;;;;;;3.38;1.77;;;;;;;-0.35;98.79;101962.19;4964540;28;20061;-68
2021/12/21 04:38:37;;;;;;;4.72;2.25;;;;;;;-0.38;98.48;101967.94;4963119;28;20035;-69
2021/12/21 04:41:17;;;;;;;3.45;1.42;;;;;;;-0.42;98.61;101970.31;4973951;28;20098;-69
2021/12/21 04:43:43;;;;;;;2.22;1.38;;;;;;;-0.38;98.71;101974.06;4964308;28;20043;-67
2021/12/21 04:46:10;;;;;;;2.92;1.55;;;;;;;-0.41;98.38;101960.53;4963283;28;20105;-67
2021/12/21 04:48:36;;;;;;;3.10;1.42;;;;;;;-0.43;98.74;101960.78;4970384;28;20109;-68
2021/12/21 04:51:02;;;;;;;2.15;1.50;;;;;;;-0.47;98.70;101964.16;4973102;28;20539;-68
2021/12/21 04:53:28;;;;;;;2.33;1.50;;;;;;;-0.50;98.82;101969.94;4969856;28;20019;-67
2021/12/21 04:55:53;;;;;;;5.13;1.85;;;;;;;-0.52;98.81;101954.31;4965129;28;20506;-67
2021/12/21 04:58:20;;;;;;;2.60;1.50;;;;;;;-0.52;98.83;101966.78;4973530;28;20031;-69
2021/12/21 05:00:46;;;;;;;4.97;1.77;;;;;;;-0.57;98.62;101964.06;4973349;28;20034;-69
2021/12/21 05:03:12;;;;;;;6.70;1.80;;;;;;;-0.58;98.57;101963.25;4966898;28;20125;-69
2021/12/21 05:05:38;;;;;;;1.45;1.20;;;;;;;-0.58;98.34;101965.88;4967771;28;20034;-69
2021/12/21 05:10:52;;;;;;;2.20;1.73;;;;;;;-0.60;98.08;101962.69;4970725;28;20412;-68
2021/12/21 05:13:20;;;;;;;1.60;1.38;;;;;;;-0.62;98.26;101970.06;4972615;28;20461;-68
2021/12/21 05:15:46;;;;;;;2.40;1.50;;;;;;;-0.63;98.09;101962.41;4971681;28;20101;-68
2021/12/21 05:18:13;;;;;;;1.30;1.20;;;;;;;-0.61;98.34;101974.34;4966278;28;20038;-69
2021/12/21 05:20:38;;;;;;;3.42;1.52;;;;;;;-0.58;98.48;101970.41;4953125;28;20219;-66
2021/12/21 05:23:05;;;;;;;2.75;1.23;;;;;;;-0.58;98.10;101973.03;4952637;28;20126;-68
2021/12/21 05:25:31;;;;;;;10.00;2.05;;;;;;;-0.61;98.18;101966.41;4953373;29;20511;-68
2021/12/21 05:27:57;;;;;;;2.55;1.63;;;;;;;-0.63;98.17;101960.56;4963248;28;20070;-67
2021/12/21 05:30:23;;;;;;;1.98;1.60;;;;;;;-0.65;98.11;101970.59;4965145;28;20487;-67
2021/12/21 05:32:52;;;;;;;1.92;1.35;;;;;;;-0.64;98.20;101972.16;4971901;28;20049;-67
2021/12/21 05:35:18;;;;;;;1.67;1.58;;;;;;;-0.64;98.44;101972.16;4969450;28;20031;-68
2021/12/21 05:37:45;;;;;;;2.65;2.00;;;;;;;-0.66;98.00;101971.66;4957668;28;20484;-68
2021/12/21 05:40:14;;;;;;;3.20;1.33;;;;;;;-0.69;98.18;101974.75;4955058;28;20031;-68
2021/12/21 05:42:40;;;;;;;1.90;1.42;;;;;;;-0.70;98.13;101964.44;4967395;28;20046;-68
2021/12/21 05:45:07;;;;;;;2.97;1.85;;;;;;;-0.72;98.44;101967.34;4971367;28;20039;-67
2021/12/21 05:47:33;;;;;;;2.50;1.48;;;;;;;-0.71;98.74;101970.75;4972151;28;20038;-67
2021/12/21 05:49:59;;;;;;;3.08;1.30;;;;;;;-0.72;98.80;101966.53;4968943;28;20439;-68
2021/12/21 05:52:24;;;;;;;2.40;1.63;;;;;;;-0.72;98.60;101961.25;4952872;28;20105;-70
2021/12/21 05:54:50;;;;;;;3.03;1.25;;;;;;;-0.70;98.83;101967.88;4952263;28;20081;-68
2021/12/21 05:57:17;;;;;;;3.33;2.33;;;;;;;-0.65;98.07;101961.84;4965243;28;20423;-68
2021/12/21 05:59:45;;;;;;;6.80;2.20;;;;;;;-0.63;98.25;101970.31;4968187;28;20077;-68
2021/12/21 06:02:11;;;;;;;6.03;1.80;;;;;;;-0.63;97.97;101970.31;4960909;28;20403;-68
2021/12/21 06:04:36;;;;;;;2.42;1.77;;;;;;;-0.66;97.84;101961.06;4955402;28;20035;-68
2021/12/21 06:07:04;;;;;;;2.38;1.38;;;;;;;-0.69;98.01;101958.09;4956844;28;20035;-67
2021/12/21 06:09:31;;;;;;;1.50;1.40;;;;;;;-0.75;97.88;101967.81;4969033;28;20057;-69
2021/12/21 06:22:48;;;;;;;3.22;2.03;;;;;;;-0.85;98.09;101961.63;4952203;28;20443;-68
2021/12/21 06:27:54;;;;;;;1.25;1.15;;;;;;;-0.88;97.66;101976.13;4967068;28;20043;-68
2021/12/21 06:30:19;;;;;;;1.70;1.50;;;;;;;-0.93;98.18;101971.56;4961297;28;20039;-69
2021/12/21 06:32:45;;;;;;;4.68;2.28;;;;;;;-0.91;97.80;101974.75;4970833;28;20039;-69
2021/12/21 06:35:11;;;;;;;1.33;0.98;;;;;;;-0.90;98.04;101967.63;4956409;28;20122;-67
2021/12/21 06:37:43;;;;;;;4.78;1.65;;;;;;;-0.92;98.29;101964.44;4957159;28;20038;-68
2021/12/21 06:40:10;;;;;;;1.83;1.17;;;;;;;-0.91;98.24;101973.97;4966898;28;20035;-68
2021/12/21 06:42:36;;;;;;;2.17;1.13;;;;;;;-0.91;98.21;101964.19;4969786;28;20510;-68
2021/12/21 06:45:10;;;;;;;2.08;1.40;;;;;;;-0.92;97.69;101965.25;4967451;28;20054;-68
2021/12/21 06:53:05;;;;;;;3.58;1.80;;;;;;;-0.96;97.72;101974.72;4969719;28;20038;-68
2021/12/21 06:55:31;;;;;;;2.00;1.67;;;;;;;-0.97;98.08;101969.69;4971522;28;20450;-69
2021/12/21 06:57:56;;;;;;;3.40;1.58;;;;;;;-0.99;97.77;101967.25;4968895;28;20582;-69
2021/12/21 07:00:22;;;;;;;2.38;1.73;;;;;;;-0.98;97.87;101968.88;4971322;28;20043;-68
2021/12/21 07:02:48;;;;;;;4.63;1.45;;;;;;;-0.98;97.82;101973.34;4971140;28;20047;-67
2021/12/21 07:05:14;;;;;;;3.72;1.88;;;;;;;-1.01;97.64;101979.13;4966331;28;20850;-69
2021/12/21 07:07:39;;;;;;;3.55;1.50;;;;;;;-1.00;98.44;101975.44;4963125;28;20045;-68
2021/12/21 07:10:09;;;;;;;1.40;1.30;;;;;;;-0.99;97.90;101971.75;4971747;28;20372;-68
2021/12/21 07:18:11;;;;;;;2.25;1.08;;;;;;;-0.99;98.12;101984.97;4962078;28;20042;-69
2021/12/21 07:20:37;;;;;;;2.95;1.30;;;;;;;-1.00;97.98;101988.66;4968651;28;20134;-68
2021/12/21 07:23:03;;;;;;;1.27;1.10;;;;;;;-1.01;98.38;101984.41;4962461;28;20034;-68
2021/12/21 07:25:32;;;;;;;2.20;1.40;;;;;;;-0.97;98.55;101974.97;4970670;28;20042;-68
2021/12/21 07:27:57;;;;;;;3.47;1.45;;;;;;;-0.97;98.19;101982.88;4971422;28;20487;-68
2021/12/21 07:30:24;;;;;;;14.77;2.03;;;;;;;-0.99;98.43;101977.81;4967980;28;20027;-68
2021/12/21 07:32:49;;;;;;;3.83;1.60;;;;;;;-0.99;98.46;101974.41;4954393;28;20058;-69
2021/12/21 07:35:15;;;;;;;1.52;1.35;;;;;;;-0.99;98.73;101987.63;4955463;28;20031;-67
2021/12/21 07:37:44;;;;;;;2.83;1.58;;;;;;;-0.99;98.54;101980.47;4970307;23;20066;-67
2021/12/21 07:40:10;;;;;;;2.33;1.25;;;;;;;-0.97;98.82;101980.25;4975605;28;20047;-66
2021/12/21 07:42:35;;;;;;;2.00;1.73;;;;;;;-0.99;98.75;101991.03;4959270;29;20099;-66
2021/12/21 07:45:01;;;;;;;2.05;1.58;;;;;;;-0.99;98.78;101987.63;4959174;28;20133;-68
2021/12/21 07:47:27;;;;;;;1.80;1.15;;;;;;;-0.95;98.75;101983.44;4963573;28;20034;-66
2021/12/21 07:49:53;;;;;;;3.03;1.73;;;;;;;-0.95;98.97;101994.03;4962360;28;20175;-66
2021/12/21 07:52:19;;;;;;;1.45;1.35;;;;;;;-0.95;98.76;101984.22;4975435;28;20074;-67
2021/12/21 07:54:45;;;;;;;1.55;1.35;;;;;;;-0.94;98.55;101983.19;4971795;28;20459;-66
2021/12/21 07:57:10;;;;;;;0.95;0.88;;;;;;;-0.91;98.83;101979.28;4974735;28;20035;-67
2021/12/21 07:59:37;;;;;;;1.35;1.25;;;;;;;-0.88;98.42;101986.69;4972885;28;20064;-67
2021/12/21 08:02:03;;;;;;;2.08;1.17;;;;;;;-0.85;98.75;101988.06;4971869;28;20472;-66
2021/12/21 08:04:28;;;;;;;1.40;1.25;;;;;;;-0.85;98.56;101991.47;4966339;28;20074;-66
2021/12/21 08:06:58;;;;;;;3.85;2.03;;;;;;;-0.83;98.66;101996.53;4975156;28;20038;-66
2021/12/21 08:09:32;;;;;;;2.63;1.75;;;;;;;-0.83;98.54;102001.84;4974126;28;20158;-67
2021/12/21 08:14:35;;;;;;;1.67;1.23;;;;;;;-0.82;98.50;102001.56;4968324;28;20046;-66
2021/12/21 08:17:01;;;;;;;3.45;2.22;;;;;;;-0.79;98.36;101997.66;4975148;28;20026;-67
2021/12/21 08:19:26;;;;;;;3.22;1.70;;;;;;;-0.76;98.71;102003.25;4971216;28;20458;-66
2021/12/21 08:21:52;;;;;;;4.13;2.20;;;;;;;-0.71;99.20;102008.56;4966287;28;20058;-68
2021/12/21 08:24:17;;;;;;;1.08;0.93;;;;;;;-0.70;98.72;101996.16;4973420;28;20094;-66
2021/12/21 08:26:43;;;;;;;4.88;1.73;;;;;;;-0.67;99.10;101999.13;4975226;28;20039;-66
2021/12/21 08:29:08;;;;;;;4.35;2.03;;;;;;;-0.67;98.96;101999.13;4971803;28;20039;-68
2021/12/21 08:31:33;;;;;;;3.33;1.98;;;;;;;-0.66;99.10;102000.72;4969509;28;20035;-66
2021/12/21 08:34:02;;;;;;;4.03;2.35;;;;;;;-0.61;98.83;101999.97;4954579;28;20027;-66
2021/12/21 08:36:28;;;;;;;1.30;1.20;;;;;;;-0.59;99.19;101996.03;4955786;28;20035;-66
2021/12/21 08:38:56;;;;;;;3.10;1.88;;;;;;;-0.57;98.86;101996.59;4954609;28;20023;-67
2021/12/21 08:41:23;;;;;;;2.22;1.50;;;;;;;-0.57;99.07;102001.88;4961321;28;20041;-66
2021/12/21 08:43:51;;;;;;;5.55;2.15;;;;;;;-0.56;99.54;101987.59;4954738;28;20117;-66
2021/12/21 08:46:19;;;;;;;2.78;2.28;;;;;;;-0.56;99.60;101986.81;4954518;28;20452;-66
2021/12/21 08:48:46;;;;;;;8.07;2.00;;;;;;;-0.59;99.46;101993.41;4959765;28;20031;-66
2021/12/21 08:51:12;;;;;;;3.42;2.15;;;;;;;-0.60;99.40;101983.06;4964327;28;20051;-66
2021/12/21 08:53:42;;;;;;;2.33;1.67;;;;;;;-0.57;99.42;101985.22;4952753;28;20110;-66
2021/12/21 08:56:08;;;;;;;1.52;1.40;;;;;;;-0.58;100.00;101983.63;4970460;28;20526;-66
2021/12/21 08:58:34;;;;;;;2.63;1.75;;;;;;;-0.58;99.82;101984.41;4953861;28;20042;-66
2021/12/21 09:00:59;;;;;;;4.32;1.48;;;;;;;-0.57;100.00;101991.31;4954026;28;20035;-67
2021/12/21 09:03:25;;;;;;;7.43;2.28;;;;;;;-0.52;100.00;101988.69;4964980;28;20036;-66
2021/12/21 09:05:52;;;;;;;1.95;1.17;;;;;;;-0.43;100.00;101997.00;4974587;28;20050;-66
2021/12/21 09:08:17;;;;;;;7.63;1.98;;;;;;;-0.32;100.00;101994.22;4972262;28;20047;-67
2021/12/21 09:10:43;;;;;;;4.05;2.28;;;;;;;-0.18;100.00;101995.44;4969949;28;20026;-66
2021/12/21 09:13:09;;;;;;;5.55;1.95;;;;;;;-0.03;100.00;101995.56;4963691;28;20475;-67
2021/12/21 09:15:35;;;;;;;4.70;2.58;;;;;;;0.06;100.00;101981.88;4970072;28;20454;-67
2021/12/21 09:18:01;;;;;;;3.65;2.45;;;;;;;0.17;100.00;101983.56;4965197;28;20129;-67
2021/12/21 09:20:28;;;;;;;4.28;2.30;;;;;;;0.28;100.00;101987.88;4973426;28;20066;-66
2021/12/21 09:22:55;;;;;;;3.38;2.08;;;;;;;0.41;100.00;101990.09;4970959;28;20504;-66
2021/12/21 09:25:21;;;;;;;1.88;1.60;;;;;;;0.54;100.00;101992.31;4965139;28;20031;-66
2021/12/21 09:27:47;;;;;;;5.97;2.88;;;;;;;0.66;100.00;101995.56;4966657;28;20047;-66
2021/12/21 09:30:16;;;;;;;4.10;2.15;;;;;;;0.76;100.00;101991.13;4969947;28;20053;-66
2021/12/21 09:32:42;;;;;;;7.10;2.30;;;;;;;0.83;100.00;101996.22;4964536;28;20113;-68
2021/12/21 09:35:08;;;;;;;7.78;2.53;;;;;;;0.86;100.00;102011.59;4972315;28;20093;-67
2021/12/21 09:37:35;;;;;;;3.63;2.10;;;;;;;0.88;100.00;102007.66;4971820;28;20084;-67
2021/12/21 09:40:04;;;;;;;6.25;2.95;;;;;;;0.90;100.00;102005.53;4965758;28;20038;-67
2021/12/21 09:42:31;;;;;;;5.90;2.50;;;;;;;0.93;100.00;102006.09;4965692;28;20101;-67
2021/12/21 09:44:58;;;;;;;3.97;2.38;;;;;;;0.93;100.00;102009.50;4972587;28;20045;-66
2021/12/21 09:47:24;;;;;;;6.10;2.22;;;;;;;0.98;100.00;102011.41;4972239;28;20054;-67
2021/12/21 09:49:50;;;;;;;8.95;3.05;;;;;;;1.01;100.00;102017.00;4972831;28;20139;-66
2021/12/21 09:52:22;;;;;;;6.07;3.20;;;;;;;1.02;100.00;102015.94;4972449;28;20038;-67
2021/12/21 09:54:49;;;;;;;9.23;2.85;;;;;;;1.05;100.00;102014.63;4971732;28;20534;-67
2021/12/21 09:57:16;;;;;;;8.80;3.15;;;;;;;1.06;100.00;102021.53;4962808;28;20035;-67
2021/12/21 09:59:47;;;;;;;4.30;2.80;;;;;;;1.08;100.00;102014.94;4951529;28;20086;-67
2021/12/21 10:02:13;;;;;;;7.50;3.33;;;;;;;1.10;100.00;102023.41;4955519;28;20031;-68
2021/12/21 10:04:46;;;;;;;5.55;3.10;;;;;;;1.14;100.00;102013.91;4951901;28;20090;-67
2021/12/21 10:07:14;;;;;;;4.80;3.05;;;;;;;1.18;100.00;102014.94;4953753;28;20043;-67
2021/12/21 10:09:43;;;;;;;3.90;2.63;;;;;;;1.23;100.00;102017.66;4955271;28;20114;-67
2021/12/21 10:12:13;;;;;;;5.68;2.17;;;;;;;1.32;100.00;102020.59;4963987;28;20507;-67
2021/12/21 10:14:39;;;;;;;6.43;2.10;;;;;;;1.34;100.00;102023.78;4968943;28;20462;-67
2021/12/21 10:17:08;;;;;;;3.22;2.10;;;;;;;1.35;100.00;102018.22;4964161;28;20039;-67
2021/12/21 10:19:35;;;;;;;3.00;2.00;;;;;;;1.36;100.00;102025.13;4965538;28;20049;-68
2021/12/21 10:22:15;;;;;;;5.32;2.50;;;;;;;1.38;100.00;102016.91;4964140;28;20495;-67
2021/12/21 10:24:50;;;;;;;7.55;2.42;;;;;;;1.38;100.00;102019.56;4966751;28;20039;-67
2021/12/21 10:27:19;;;;;;;6.82;2.92;;;;;;;1.40;100.00;102015.59;4972497;28;20034;-67
2021/12/21 10:29:51;;;;;;;3.97;2.30;;;;;;;1.43;100.00;102023.00;4971789;28;20030;-66
2021/12/21 10:32:21;;;;;;;8.50;2.92;;;;;;;1.46;100.00;102011.91;4970773;28;20038;-67
2021/12/21 10:35:08;;;;;;;10.05;3.17;;;;;;;1.53;100.00;102017.75;4966209;28;20058;-68
2021/12/21 10:37:37;;;;;;;11.50;2.25;;;;;;;1.58;100.00;102011.66;4969753;28;20035;-68
2021/12/21 10:40:17;;;;;;;5.72;2.22;;;;;;;1.66;100.00;102022.59;4983298;28;20133;-67
2021/12/21 10:42:49;;;;;;;6.68;2.75;;;;;;;1.79;100.00;102015.97;4965197;28;20113;-68
2021/12/21 10:45:15;;;;;;;6.38;2.78;;;;;;;1.87;100.00;102020.78;4968029;28;20042;-69
2021/12/21 10:47:44;;;;;;;4.03;2.22;;;;;;;1.96;100.00;102019.19;4971483;28;20035;-68
2021/12/21 10:50:16;;;;;;;2.47;1.85;;;;;;;1.96;100.00;102018.38;4970366;28;20046;-69
2021/12/21 10:52:48;;;;;;;7.25;2.85;;;;;;;1.97;100.00;102012.03;4966711;28;20059;-68
2021/12/21 10:55:14;;;;;;;5.57;3.60;;;;;;;1.89;100.00;102021.31;4964632;28;20031;-69
2021/12/21 10:57:39;;;;;;;6.25;2.88;;;;;;;1.99;100.00;102005.41;4969127;28;20478;-69
2021/12/21 11:00:13;;;;;;;7.38;3.83;;;;;;;2.04;100.00;102017.88;4964217;28;20077;-68
2021/12/21 11:02:39;;;;;;;6.47;3.60;;;;;;;2.12;100.00;102006.72;4965681;28;20066;-68
2021/12/21 11:05:15;;;;;;;7.80;3.03;;;;;;;2.19;100.00;102000.09;4963628;28;20039;-70
2021/12/21 11:07:51;;;;;;;5.70;3.33;;;;;;;2.22;100.00;102004.09;4962699;28;20038;-68
2021/12/21 11:10:27;;;;;;;5.60;3.20;;;;;;;2.28;100.00;101998.50;4972005;28;20145;-68
2021/12/21 11:12:55;;;;;;;5.82;4.13;;;;;;;2.29;100.00;101996.63;4973698;28;20084;-69
2021/12/21 11:15:28;;;;;;;5.03;2.95;;;;;;;2.32;100.00;101998.78;4968232;28;20026;-67
2021/12/21 11:17:59;;;;;;;8.32;4.13;;;;;;;2.28;100.00;102000.38;4973733;28;20051;-67
2021/12/21 11:20:25;;;;;;;7.25;3.90;;;;;;;2.33;100.00;101993.19;4969175;28;20423;-67
2021/12/21 11:22:52;;;;;;;6.72;3.63;;;;;;;2.32;100.00;101988.91;4970323;28;20051;-67
2021/12/21 11:25:18;;;;;;;8.77;3.83;;;;;;;2.43;100.00;101989.72;4966202;28;20039;-68
2021/12/21 11:27:44;;;;;;;11.68;4.07;;;;;;;2.48;100.00;101981.72;4970352;28;20084;-67
2021/12/21 11:30:21;;;;;;;6.95;3.88;;;;;;;2.48;100.00;101982.53;4973222;28;20553;-67
2021/12/21 11:32:51;;;;;;;9.10;3.60;;;;;;;2.53;100.00;101973.78;4969959;28;20097;-67
2021/12/21 11:37:52;;;;;;;10.25;4.63;;;;;;;2.54;100.00;101981.47;4973440;28;20038;-67
2021/12/21 11:40:19;;;;;;;;;;;;;;;2.60;100.00;101979.59;4974589;28;20089;-67
2021/12/21 11:42:56;;;;;;;5.97;2.88;;;;;;;2.68;100.00;101974.53;4970505;28;19914;-68
2021/12/21 11:45:27;;;;;;;4.32;3.47;;;;;;;2.69;100.00;101975.34;4957373;28;20447;-66
2021/12/21 11:47:59;;;;;;;7.28;3.58;;;;;;;2.64;100.00;101970.81;4971855;28;20111;-67
2021/12/21 11:50:25;;;;;;;7.10;3.50;;;;;;;2.65;100.00;101961.00;4969493;28;20476;-67
2021/12/21 11:52:53;;;;;;;10.88;4.05;;;;;;;2.70;100.00;101963.63;4969556;28;20035;-67
2021/12/21 11:55:22;;;;;;;9.38;3.47;;;;;;;2.74;100.00;101964.69;4968171;28;20088;-66
2021/12/21 11:57:50;;;;;;;9.00;3.58;;;;;;;2.65;100.00;101966.31;4969001;28;20495;-67
2021/12/21 12:00:25;;;;;;;6.40;3.13;;;;;;;2.79;100.00;101963.91;4968853;28;20073;-67
2021/12/21 12:02:53;;;;;;;4.65;3.83;;;;;;;2.74;100.00;101970.00;4969133;28;20132;-67
2021/12/21 12:05:25;;;;;;;8.38;4.07;;;;;;;2.70;100.00;101953.81;4961733;28;20066;-67
2021/12/21 12:08:10;;;;;;;9.45;4.00;;;;;;;2.73;100.00;101955.09;4957469;28;20973;-67
2021/12/21 12:10:46;;;;;;;11.50;3.13;;;;;;;2.79;100.00;101948.72;4969579;28;20117;-67
2021/12/21 12:13:17;;;;;;;6.70;3.92;;;;;;;2.84;100.00;101951.38;4969561;28;20049;-65
2021/12/21 12:16:06;;;;;;;7.82;3.80;;;;;;;2.80;100.00;101952.97;4972792;28;20049;-66
2021/12/21 12:18:35;;;;;;;12.30;4.57;;;;;;;2.72;100.00;101953.53;4964021;28;20061;-66
2021/12/21 12:21:10;;;;;;;8.30;3.53;;;;;;;2.73;100.00;101939.16;4970772;28;20039;-66
2021/12/21 12:23:58;;;;;;;6.55;3.55;;;;;;;2.72;100.00;101934.91;4985865;28;20201;-66
2021/12/21 12:26:31;;;;;;;7.43;3.97;;;;;;;2.75;100.00;101939.69;4972865;28;20027;-66
2021/12/21 12:29:19;;;;;;;6.10;2.67;;;;;;;2.72;100.00;101945.56;4972730;28;20038;-66
2021/12/21 12:31:58;;;;;;;5.60;3.53;;;;;;;2.75;100.00;101942.34;4972461;28;20039;-66
2021/12/21 12:34:29;;;;;;;4.85;2.78;;;;;;;2.82;100.00;101929.56;4971666;28;20023;-65
2021/12/21 12:36:55;;;;;;;5.13;3.77;;;;;;;2.71;100.00;101933.31;4969769;28;20435;-70
2021/12/21 12:39:29;;;;;;;6.28;3.42;;;;;;;2.71;100.00;101941.28;4969682;28;20894;-66
2021/12/21 12:42:03;;;;;;;5.55;3.08;;;;;;;2.73;100.00;101936.50;4971664;28;20031;-68